sensor_id;sensor_type;location;lat;lon;timestamp;pressure;altitude;pressure_sealevel;temperature;humidity
46718;BME280;32448;44.960;-0.698;2023-03-31T00:02:00;101035.63;;;15.41;100.00
46718;BME280;32448;44.960;-0.698;2023-03-31T00:04:30;101032.13;;;15.42;100.00
46718;BME280;32448;44.960;-0.698;2023-03-31T00:06:57;101038.28;;;15.46;100.00
46718;BME280;32448;44.960;-0.698;2023-03-31T00:09:24;101054.97;;;15.52;100.00
46718;BME280;32448;44.960;-0.698;2023-03-31T00:11:51;101056.78;;;15.64;100.00
46718;BME280;32448;44.960;-0.698;2023-03-31T00:14:19;101052.38;;;15.64;100.00
46718;BME280;32448;44.960;-0.698;2023-03-31T00:16:46;101052.38;;;15.69;100.00
46718;BME280;32448;44.960;-0.698;2023-03-31T00:19:13;101057.66;;;15.68;100.00
46718;BME280;32448;44.960;-0.698;2023-03-31T00:21:49;101066.44;;;15.71;100.00
46718;BME280;32448;44.960;-0.698;2023-03-31T00:24:24;101066.44;;;15.73;100.00
46718;BME280;32448;44.960;-0.698;2023-03-31T00:26:51;101071.69;;;15.63;100.00
46718;BME280;32448;44.960;-0.698;2023-03-31T00:29:18;101066.44;;;15.67;100.00
46718;BME280;32448;44.960;-0.698;2023-03-31T00:31:45;101052.38;;;15.66;100.00
46718;BME280;32448;44.960;-0.698;2023-03-31T00:34:12;101055.88;;;15.73;100.00
46718;BME280;32448;44.960;-0.698;2023-03-31T00:36:39;101053.25;;;15.65;100.00
46718;BME280;32448;44.960;-0.698;2023-03-31T00:39:14;101039.19;;;15.55;100.00
46718;BME280;32448;44.960;-0.698;2023-03-31T00:41:42;101050.56;;;15.47;100.00
46718;BME280;32448;44.960;-0.698;2023-03-31T00:49:28;101037.41;;;15.45;100.00
46718;BME280;32448;44.960;-0.698;2023-03-31T00:52:02;101066.38;;;15.42;100.00
46718;BME280;32448;44.960;-0.698;2023-03-31T00:54:30;101056.72;;;15.43;100.00
46718;BME280;32448;44.960;-0.698;2023-03-31T00:56:59;101054.97;;;15.46;100.00
46718;BME280;32448;44.960;-0.698;2023-03-31T00:59:29;101047.03;;;15.37;100.00
46718;BME280;32448;44.960;-0.698;2023-03-31T01:01:57;101055.84;;;15.42;100.00
46718;BME280;32448;44.960;-0.698;2023-03-31T01:04:29;101053.19;;;15.33;100.00
46718;BME280;32448;44.960;-0.698;2023-03-31T01:06:59;101061.06;;;15.28;100.00
46718;BME280;32448;44.960;-0.698;2023-03-31T01:09:29;101065.44;;;15.26;100.00
46718;BME280;32448;44.960;-0.698;2023-03-31T01:12:02;101060.19;;;15.28;100.00
46718;BME280;32448;44.960;-0.698;2023-03-31T01:14:30;101049.63;;;15.25;100.00
46718;BME280;32448;44.960;-0.698;2023-03-31T01:16:58;101062.78;;;15.14;100.00
46718;BME280;32448;44.960;-0.698;2023-03-31T01:19:30;101053.13;;;15.09;100.00
46718;BME280;32448;44.960;-0.698;2023-03-31T01:22:15;101073.28;;;15.04;100.00
46718;BME280;32448;44.960;-0.698;2023-03-31T01:30:59;101065.34;;;14.94;100.00
46718;BME280;32448;44.960;-0.698;2023-03-31T01:45:41;101063.56;;;14.80;100.00
46718;BME280;32448;44.960;-0.698;2023-03-31T01:48:17;101064.34;;;14.67;100.00
46718;BME280;32448;44.960;-0.698;2023-03-31T01:50:53;101090.66;;;14.70;100.00
46718;BME280;32448;44.960;-0.698;2023-03-31T01:56:15;101088.94;;;14.69;100.00
46718;BME280;32448;44.960;-0.698;2023-03-31T01:58:49;101075.78;;;14.69;100.00
46718;BME280;32448;44.960;-0.698;2023-03-31T02:01:20;101080.16;;;14.67;100.00
46718;BME280;32448;44.960;-0.698;2023-03-31T02:03:58;101073.09;;;14.64;100.00
46718;BME280;32448;44.960;-0.698;2023-03-31T02:06:32;101066.06;;;14.60;100.00
46718;BME280;32448;44.960;-0.698;2023-03-31T02:09:03;101071.31;;;14.58;100.00
46718;BME280;32448;44.960;-0.698;2023-03-31T02:11:32;101066.94;;;14.57;100.00
46718;BME280;32448;44.960;-0.698;2023-03-31T02:13:59;101066.06;;;14.57;100.00
46718;BME280;32448;44.960;-0.698;2023-03-31T02:16:31;101066.00;;;14.45;100.00
46718;BME280;32448;44.960;-0.698;2023-03-31T02:19:02;101060.75;;;14.49;100.00
46718;BME280;32448;44.960;-0.698;2023-03-31T02:21:31;101069.50;;;14.48;100.00
46718;BME280;32448;44.960;-0.698;2023-03-31T02:24:03;101066.84;;;14.41;100.00
46718;BME280;32448;44.960;-0.698;2023-03-31T02:26:34;101067.66;;;14.37;100.00
46718;BME280;32448;44.960;-0.698;2023-03-31T02:29:03;101058.94;;;14.41;100.00
46718;BME280;32448;44.960;-0.698;2023-03-31T02:31:40;101067.66;;;14.35;100.00
46718;BME280;32448;44.960;-0.698;2023-03-31T02:34:10;101072.00;;;14.30;100.00
46718;BME280;32448;44.960;-0.698;2023-03-31T02:36:37;101078.13;;;14.31;100.00
46718;BME280;32448;44.960;-0.698;2023-03-31T02:39:06;101068.53;;;14.37;100.00
46718;BME280;32448;44.960;-0.698;2023-03-31T02:41:34;101068.50;;;14.31;100.00
46718;BME280;32448;44.960;-0.698;2023-03-31T02:44:02;101061.44;;;14.27;100.00
46718;BME280;32448;44.960;-0.698;2023-03-31T02:46:29;101055.28;;;14.25;100.00
46718;BME280;32448;44.960;-0.698;2023-03-31T02:49:00;101067.53;;;14.18;100.00
46718;BME280;32448;44.960;-0.698;2023-03-31T03:07:47;101038.50;;;13.99;100.00
46718;BME280;32448;44.960;-0.698;2023-03-31T03:12:42;101034.00;;;13.85;100.00
46718;BME280;32448;44.960;-0.698;2023-03-31T03:15:15;101055.06;;;13.89;100.00
46718;BME280;32448;44.960;-0.698;2023-03-31T03:17:44;101046.31;;;13.91;100.00
46718;BME280;32448;44.960;-0.698;2023-03-31T03:20:13;101048.88;;;13.83;100.00
46718;BME280;32448;44.960;-0.698;2023-03-31T03:22:41;101052.38;;;13.84;100.00
46718;BME280;32448;44.960;-0.698;2023-03-31T03:25:10;101058.50;;;13.84;100.00
46718;BME280;32448;44.960;-0.698;2023-03-31T03:27:39;101037.47;;;13.81;100.00
46718;BME280;32448;44.960;-0.698;2023-03-31T03:30:07;101062.00;;;13.82;100.00
46718;BME280;32448;44.960;-0.698;2023-03-31T03:32:34;101062.88;;;13.79;100.00
46718;BME280;32448;44.960;-0.698;2023-03-31T03:35:03;101051.50;;;13.83;100.00
46718;BME280;32448;44.960;-0.698;2023-03-31T03:37:32;101054.97;;;13.78;100.00
46718;BME280;32448;44.960;-0.698;2023-03-31T03:39:59;101059.28;;;13.73;100.00
46718;BME280;32448;44.960;-0.698;2023-03-31T03:42:27;101075.00;;;13.70;100.00
46718;BME280;32448;44.960;-0.698;2023-03-31T03:44:53;101072.38;;;13.65;100.00
46718;BME280;32448;44.960;-0.698;2023-03-31T03:47:21;101075.00;;;13.67;100.00
46718;BME280;32448;44.960;-0.698;2023-03-31T03:49:48;101043.22;;;13.39;100.00
46718;BME280;32448;44.960;-0.698;2023-03-31T03:52:15;101081.91;;;13.56;100.00
46718;BME280;32448;44.960;-0.698;2023-03-31T03:54:42;101072.25;;;13.55;100.00
46718;BME280;32448;44.960;-0.698;2023-03-31T03:57:13;101073.94;;;13.48;100.00
46718;BME280;32448;44.960;-0.698;2023-03-31T03:59:45;101075.63;;;13.41;100.00
46718;BME280;32448;44.960;-0.698;2023-03-31T04:02:21;101079.06;;;13.37;100.00
46718;BME280;32448;44.960;-0.698;2023-03-31T04:05:06;101075.56;;;13.37;100.00
46718;BME280;32448;44.960;-0.698;2023-03-31T04:07:38;101072.88;;;13.29;100.00
46718;BME280;32448;44.960;-0.698;2023-03-31T04:10:12;101074.56;;;13.23;100.00
46718;BME280;32448;44.960;-0.698;2023-03-31T04:12:48;101080.69;;;13.23;100.00
46718;BME280;32448;44.960;-0.698;2023-03-31T04:15:15;101094.63;;;13.19;100.00
46718;BME280;32448;44.960;-0.698;2023-03-31T04:17:42;101097.25;;;13.19;100.00
46718;BME280;32448;44.960;-0.698;2023-03-31T04:20:20;101096.38;;;13.19;100.00
46718;BME280;32448;44.960;-0.698;2023-03-31T04:22:47;101102.59;;;13.24;100.00
46718;BME280;32448;44.960;-0.698;2023-03-31T04:25:17;101102.59;;;13.27;100.00
46718;BME280;32448;44.960;-0.698;2023-03-31T04:27:46;101093.88;;;13.29;100.00
46718;BME280;32448;44.960;-0.698;2023-03-31T04:30:16;101093.91;;;13.31;100.00
46718;BME280;32448;44.960;-0.698;2023-03-31T04:32:55;101095.69;;;13.33;100.00
46718;BME280;32448;44.960;-0.698;2023-03-31T04:35:22;101106.94;;;13.23;100.00
46718;BME280;32448;44.960;-0.698;2023-03-31T04:37:51;101096.44;;;13.23;100.00
46718;BME280;32448;44.960;-0.698;2023-03-31T04:42:51;101106.97;;;13.28;100.00
46718;BME280;32448;44.960;-0.698;2023-03-31T04:45:22;101109.56;;;13.22;100.00
46718;BME280;32448;44.960;-0.698;2023-03-31T04:47:53;101113.09;;;13.24;100.00
46718;BME280;32448;44.960;-0.698;2023-03-31T04:50:21;101125.22;;;13.14;100.00
46718;BME280;32448;44.960;-0.698;2023-03-31T04:52:48;101109.41;;;13.12;100.00
46718;BME280;32448;44.960;-0.698;2023-03-31T04:55:15;101123.34;;;13.08;100.00
46718;BME280;32448;44.960;-0.698;2023-03-31T04:57:42;101128.59;;;13.08;100.00
46718;BME280;32448;44.960;-0.698;2023-03-31T05:00:10;101133.00;;;13.11;100.00
46718;BME280;32448;44.960;-0.698;2023-03-31T05:02:39;101137.28;;;13.04;100.00
46718;BME280;32448;44.960;-0.698;2023-03-31T05:05:10;101135.56;;;13.06;100.00
46718;BME280;32448;44.960;-0.698;2023-03-31T05:07:38;101134.66;;;13.03;100.00
46718;BME280;32448;44.960;-0.698;2023-03-31T05:10:05;101137.28;;;13.04;100.00
46718;BME280;32448;44.960;-0.698;2023-03-31T05:12:33;101132.91;;;13.02;100.00
46718;BME280;32448;44.960;-0.698;2023-03-31T05:15:02;101126.66;;;12.94;100.00
46718;BME280;32448;44.960;-0.698;2023-03-31T05:17:32;101131.94;;;12.97;100.00
46718;BME280;32448;44.960;-0.698;2023-03-31T05:19:59;101136.28;;;12.95;100.00
46718;BME280;32448;44.960;-0.698;2023-03-31T05:22:27;101133.78;;;13.02;100.00
46718;BME280;32448;44.960;-0.698;2023-03-31T05:24:54;101125.78;;;12.95;100.00
46718;BME280;32448;44.960;-0.698;2023-03-31T05:27:21;101130.13;;;12.93;100.00
46718;BME280;32448;44.960;-0.698;2023-03-31T05:29:48;101136.28;;;12.95;100.00
46718;BME280;32448;44.960;-0.698;2023-03-31T05:32:17;101132.81;;;12.96;100.00
46718;BME280;32448;44.960;-0.698;2023-03-31T05:34:45;101137.13;;;12.91;100.00
46718;BME280;32448;44.960;-0.698;2023-03-31T05:37:12;101143.25;;;12.91;100.00
46718;BME280;32448;44.960;-0.698;2023-03-31T05:39:39;101145.88;;;12.91;100.00
46718;BME280;32448;44.960;-0.698;2023-03-31T05:42:07;101136.28;;;12.95;100.00
46718;BME280;32448;44.960;-0.698;2023-03-31T05:44:34;101155.50;;;12.91;100.00
46718;BME280;32448;44.960;-0.698;2023-03-31T05:47:01;101144.09;;;12.89;100.00
46718;BME280;32448;44.960;-0.698;2023-03-31T05:49:28;101155.50;;;12.91;100.00
46718;BME280;32448;44.960;-0.698;2023-03-31T05:51:56;101153.75;;;12.93;100.00
46718;BME280;32448;44.960;-0.698;2023-03-31T05:54:23;101159.91;;;12.95;100.00
46718;BME280;32448;44.960;-0.698;2023-03-31T05:56:50;101159.09;;;12.99;100.00
46718;BME280;32448;44.960;-0.698;2023-03-31T05:59:17;101153.81;;;12.97;100.00
46718;BME280;32448;44.960;-0.698;2023-03-31T06:01:45;101168.72;;;13.00;100.00
46718;BME280;32448;44.960;-0.698;2023-03-31T06:04:13;101172.13;;;12.93;100.00
46718;BME280;32448;44.960;-0.698;2023-03-31T06:06:40;101178.28;;;12.95;100.00
46718;BME280;32448;44.960;-0.698;2023-03-31T06:09:08;101188.81;;;12.98;100.00
46718;BME280;32448;44.960;-0.698;2023-03-31T06:11:38;101183.50;;;12.95;100.00
46718;BME280;32448;44.960;-0.698;2023-03-31T06:14:05;101184.44;;;12.98;100.00
46718;BME280;32448;44.960;-0.698;2023-03-31T06:16:32;101181.88;;;13.01;100.00
46718;BME280;32448;44.960;-0.698;2023-03-31T06:18:59;101170.50;;;13.04;100.00
46718;BME280;32448;44.960;-0.698;2023-03-31T06:21:29;101174.94;;;13.06;100.00
46718;BME280;32448;44.960;-0.698;2023-03-31T06:23:56;101171.41;;;13.04;100.00
46718;BME280;32448;44.960;-0.698;2023-03-31T06:26:23;101185.44;;;13.06;100.00
46718;BME280;32448;44.960;-0.698;2023-03-31T06:28:51;101186.38;;;13.11;100.00
46718;BME280;32448;44.960;-0.698;2023-03-31T06:31:20;101180.22;;;13.09;100.00
46718;BME280;32448;44.960;-0.698;2023-03-31T06:33:47;101195.19;;;13.15;100.00
46718;BME280;32448;44.960;-0.698;2023-03-31T06:36:15;101192.56;;;13.15;100.00
46718;BME280;32448;44.960;-0.698;2023-03-31T06:38:43;101194.31;;;13.15;100.00
46718;BME280;32448;44.960;-0.698;2023-03-31T06:41:12;101194.44;;;13.22;100.00
46718;BME280;32448;44.960;-0.698;2023-03-31T06:43:39;101195.28;;;13.21;100.00
46718;BME280;32448;44.960;-0.698;2023-03-31T06:46:07;101191.84;;;13.24;100.00
46718;BME280;32448;44.960;-0.698;2023-03-31T06:48:35;101194.53;;;13.31;100.00
46718;BME280;32448;44.960;-0.698;2023-03-31T06:51:03;101184.16;;;13.40;100.00
46718;BME280;32448;44.960;-0.698;2023-03-31T06:53:32;101193.91;;;13.52;100.00
46718;BME280;32448;44.960;-0.698;2023-03-31T06:56:00;101202.81;;;13.65;100.00
46718;BME280;32448;44.960;-0.698;2023-03-31T06:58:27;101199.41;;;13.73;100.00
46718;BME280;32448;44.960;-0.698;2023-03-31T07:00:57;101203.75;;;13.71;100.00
46718;BME280;32448;44.960;-0.698;2023-03-31T07:03:24;101203.78;;;13.73;100.00
46718;BME280;32448;44.960;-0.698;2023-03-31T07:05:52;101209.03;;;13.73;100.00
46718;BME280;32448;44.960;-0.698;2023-03-31T07:08:19;101214.28;;;13.71;100.00
46718;BME280;32448;44.960;-0.698;2023-03-31T07:10:48;101205.59;;;13.78;100.00
46718;BME280;32448;44.960;-0.698;2023-03-31T07:13:16;101216.13;;;13.78;100.00
46718;BME280;32448;44.960;-0.698;2023-03-31T07:15:48;101215.25;;;13.79;100.00
46718;BME280;32448;44.960;-0.698;2023-03-31T07:18:17;101214.38;;;13.82;100.00
46718;BME280;32448;44.960;-0.698;2023-03-31T07:20:48;101204.84;;;13.90;100.00
46718;BME280;32448;44.960;-0.698;2023-03-31T07:23:17;101210.13;;;13.95;100.00
46718;BME280;32448;44.960;-0.698;2023-03-31T07:25:45;101197.03;;;13.96;100.00
46718;BME280;32448;44.960;-0.698;2023-03-31T07:28:12;101217.25;;;14.05;100.00
46718;BME280;32448;44.960;-0.698;2023-03-31T07:30:41;101224.22;;;14.00;100.00
46718;BME280;32448;44.960;-0.698;2023-03-31T07:33:08;101226.06;;;14.10;100.00
46718;BME280;32448;44.960;-0.698;2023-03-31T07:35:39;101222.53;;;14.08;100.00
46718;BME280;32448;44.960;-0.698;2023-03-31T07:38:07;101220.81;;;14.08;100.00
46718;BME280;32448;44.960;-0.698;2023-03-31T07:40:35;101221.69;;;14.10;100.00
46718;BME280;32448;44.960;-0.698;2023-03-31T07:43:03;101224.47;;;14.24;100.00
46718;BME280;32448;44.960;-0.698;2023-03-31T07:45:30;101223.66;;;14.31;100.00
46718;BME280;32448;44.960;-0.698;2023-03-31T07:47:58;101235.09;;;14.38;100.00
46718;BME280;32448;44.960;-0.698;2023-03-31T07:50:25;101229.13;;;14.52;100.00
46718;BME280;32448;44.960;-0.698;2023-03-31T07:52:54;101228.28;;;14.56;100.00
46718;BME280;32448;44.960;-0.698;2023-03-31T07:55:21;101235.25;;;14.53;100.00
46718;BME280;32448;44.960;-0.698;2023-03-31T07:57:50;101234.41;;;14.54;100.00
46718;BME280;32448;44.960;-0.698;2023-03-31T08:00:17;101241.53;;;14.69;100.00
46718;BME280;32448;44.960;-0.698;2023-03-31T08:02:45;101253.78;;;14.67;100.00
46718;BME280;32448;44.960;-0.698;2023-03-31T08:05:13;101256.44;;;14.68;100.00
46718;BME280;32448;44.960;-0.698;2023-03-31T08:07:41;101264.34;;;14.71;100.00
46718;BME280;32448;44.960;-0.698;2023-03-31T08:10:11;101252.88;;;14.63;100.00
46718;BME280;32448;44.960;-0.698;2023-03-31T08:12:40;101249.50;;;14.78;100.00
46718;BME280;32448;44.960;-0.698;2023-03-31T08:15:07;101244.19;;;14.75;100.00
46718;BME280;32448;44.960;-0.698;2023-03-31T08:17:35;101260.91;;;14.78;100.00
46718;BME280;32448;44.960;-0.698;2023-03-31T08:20:03;101256.59;;;14.88;100.00
46718;BME280;32448;44.960;-0.698;2023-03-31T08:22:34;101254.84;;;14.88;100.00
46718;BME280;32448;44.960;-0.698;2023-03-31T08:25:06;101254.81;;;14.87;100.00
46718;BME280;32448;44.960;-0.698;2023-03-31T08:27:35;101264.56;;;15.03;100.00
46718;BME280;32448;44.960;-0.698;2023-03-31T08:30:03;101248.81;;;15.08;100.00
46718;BME280;32448;44.960;-0.698;2023-03-31T08:32:31;101245.31;;;15.07;100.00
46718;BME280;32448;44.960;-0.698;2023-03-31T08:35:03;101262.03;;;15.12;100.00
46718;BME280;32448;44.960;-0.698;2023-03-31T08:37:31;101246.16;;;15.06;100.00
46718;BME280;32448;44.960;-0.698;2023-03-31T08:39:59;101265.47;;;15.07;100.00
46718;BME280;32448;44.960;-0.698;2023-03-31T08:47:35;101293.38;;;14.83;100.00
46718;BME280;32448;44.960;-0.698;2023-03-31T08:50:46;101288.88;;;14.66;100.00
46718;BME280;32448;44.960;-0.698;2023-03-31T09:06:26;101317.63;;;14.47;100.00
46718;BME280;32448;44.960;-0.698;2023-03-31T09:08:57;101326.34;;;14.42;100.00
46718;BME280;32448;44.960;-0.698;2023-03-31T09:16:55;101328.91;;;14.39;100.00
46718;BME280;32448;44.960;-0.698;2023-03-31T09:19:36;101326.16;;;14.28;100.00
46718;BME280;32448;44.960;-0.698;2023-03-31T09:22:09;101341.16;;;14.35;100.00
46718;BME280;32448;44.960;-0.698;2023-03-31T09:27:25;101319.41;;;14.51;100.00
46718;BME280;32448;44.960;-0.698;2023-03-31T09:32:40;101323.13;;;14.73;100.00
46718;BME280;32448;44.960;-0.698;2023-03-31T09:37:41;101311.03;;;14.95;100.00
46718;BME280;32448;44.960;-0.698;2023-03-31T09:40:19;101320.66;;;14.90;100.00
46718;BME280;32448;44.960;-0.698;2023-03-31T09:42:47;101306.63;;;14.92;100.00
46718;BME280;32448;44.960;-0.698;2023-03-31T09:45:17;101315.31;;;14.84;100.00
46718;BME280;32448;44.960;-0.698;2023-03-31T09:47:46;101314.47;;;14.86;100.00
46718;BME280;32448;44.960;-0.698;2023-03-31T09:50:16;101312.75;;;14.88;100.00
46718;BME280;32448;44.960;-0.698;2023-03-31T09:52:45;101294.44;;;15.02;100.00
46718;BME280;32448;44.960;-0.698;2023-03-31T09:55:25;101307.53;;;14.96;100.00
46718;BME280;32448;44.960;-0.698;2023-03-31T09:58:06;101293.47;;;14.89;100.00
46718;BME280;32448;44.960;-0.698;2023-03-31T10:00:35;101289.16;;;15.01;100.00
46718;BME280;32448;44.960;-0.698;2023-03-31T10:03:03;101282.19;;;15.15;100.00
46718;BME280;32448;44.960;-0.698;2023-03-31T10:05:35;101273.41;;;15.14;100.00
46718;BME280;32448;44.960;-0.698;2023-03-31T10:10:43;101285.91;;;15.43;100.00
46718;BME280;32448;44.960;-0.698;2023-03-31T10:13:13;101284.19;;;15.52;100.00
46718;BME280;32448;44.960;-0.698;2023-03-31T10:15:42;101260.59;;;15.68;100.00
46718;BME280;32448;44.960;-0.698;2023-03-31T10:18:14;101261.41;;;15.57;100.00
46718;BME280;32448;44.960;-0.698;2023-03-31T10:20:43;101265.78;;;15.58;100.00
46718;BME280;32448;44.960;-0.698;2023-03-31T10:23:25;101272.84;;;15.64;100.00
46718;BME280;32448;44.960;-0.698;2023-03-31T10:25:55;101275.56;;;15.85;100.00
46718;BME280;32448;44.960;-0.698;2023-03-31T10:28:23;101265.94;;;15.90;100.00
46718;BME280;32448;44.960;-0.698;2023-03-31T10:30:53;101277.34;;;15.94;100.00
46718;BME280;32448;44.960;-0.698;2023-03-31T10:33:25;101271.19;;;15.86;100.00
46718;BME280;32448;44.960;-0.698;2023-03-31T10:35:57;101272.88;;;15.67;100.00
46718;BME280;32448;44.960;-0.698;2023-03-31T10:38:35;101281.59;;;15.60;100.00
46718;BME280;32448;44.960;-0.698;2023-03-31T10:41:03;101269.31;;;15.54;100.00
46718;BME280;32448;44.960;-0.698;2023-03-31T10:43:38;101266.69;;;15.56;100.00
46718;BME280;32448;44.960;-0.698;2023-03-31T10:46:08;101273.75;;;15.66;100.00
46718;BME280;32448;44.960;-0.698;2023-03-31T10:48:36;101288.78;;;15.94;100.00
46718;BME280;32448;44.960;-0.698;2023-03-31T10:53:41;101279.97;;;15.92;100.00
46718;BME280;32448;44.960;-0.698;2023-03-31T10:56:15;101272.97;;;15.90;100.00
46718;BME280;32448;44.960;-0.698;2023-03-31T11:09:30;101285.78;;;15.23;100.00
46718;BME280;32448;44.960;-0.698;2023-03-31T11:20:10;101285.22;;;15.82;100.00
46718;BME280;32448;44.960;-0.698;2023-03-31T11:29:02;101283.59;;;16.28;100.00
46718;BME280;32448;44.960;-0.698;2023-03-31T11:36:15;101267.81;;;16.69;100.00
46718;BME280;32448;44.960;-0.698;2023-03-31T11:41:21;101260.78;;;16.79;100.00
46718;BME280;32448;44.960;-0.698;2023-03-31T11:43:54;101240.53;;;16.81;100.00
46718;BME280;32448;44.960;-0.698;2023-03-31T11:46:27;101273.09;;;16.72;100.00
46718;BME280;32448;44.960;-0.698;2023-03-31T11:49:03;101233.50;;;16.57;100.00
46718;BME280;32448;44.960;-0.698;2023-03-31T11:54:00;101250.22;;;16.63;100.00
46718;BME280;32448;44.960;-0.698;2023-03-31T11:56:35;101265.16;;;16.60;100.00
46718;BME280;32448;44.960;-0.698;2023-03-31T11:59:05;101252.00;;;16.67;100.00
46718;BME280;32448;44.960;-0.698;2023-03-31T12:01:39;101260.78;;;16.89;100.00
46718;BME280;32448;44.960;-0.698;2023-03-31T12:04:17;101255.50;;;16.89;100.00
46718;BME280;32448;44.960;-0.698;2023-03-31T12:06:48;101260.78;;;16.83;100.00
46718;BME280;32448;44.960;-0.698;2023-03-31T12:14:33;101259.00;;;17.09;100.00
46718;BME280;32448;44.960;-0.698;2023-03-31T12:17:07;101253.66;;;17.28;100.00
46718;BME280;32448;44.960;-0.698;2023-03-31T12:24:48;101254.28;;;17.94;100.00
46718;BME280;32448;44.960;-0.698;2023-03-31T12:29:43;101257.97;;;17.56;100.00
46718;BME280;32448;44.960;-0.698;2023-03-31T12:32:17;101266.88;;;17.22;100.00
46718;BME280;32448;44.960;-0.698;2023-03-31T12:37:46;101265.19;;;16.86;100.00
46718;BME280;32448;44.960;-0.698;2023-03-31T12:40:30;101272.22;;;16.79;100.00
46718;BME280;32448;44.960;-0.698;2023-03-31T12:48:30;101273.97;;;16.72;100.00
46718;BME280;32448;44.960;-0.698;2023-03-31T12:51:15;101268.66;;;16.51;100.00
46718;BME280;32448;44.960;-0.698;2023-03-31T12:56:14;101273.09;;;16.69;100.00
46718;BME280;32448;44.960;-0.698;2023-03-31T12:58:43;101265.19;;;16.78;100.00
46718;BME280;32448;44.960;-0.698;2023-03-31T13:01:17;101266.94;;;16.97;100.00
46718;BME280;32448;44.960;-0.698;2023-03-31T13:11:38;101233.47;;;17.01;100.00
46718;BME280;32448;44.960;-0.698;2023-03-31T13:14:12;101264.31;;;16.90;100.00
46718;BME280;32448;44.960;-0.698;2023-03-31T13:16:42;101267.81;;;16.72;100.00
46718;BME280;32448;44.960;-0.698;2023-03-31T13:19:11;101270.47;;;16.67;100.00
46718;BME280;32448;44.960;-0.698;2023-03-31T13:22:40;101251.94;;;16.51;100.00
46718;BME280;32448;44.960;-0.698;2023-03-31T13:24:36;101273.06;;;16.48;100.00
46718;BME280;32448;44.960;-0.698;2023-03-31T13:29:50;101257.22;;;16.51;100.00
46718;BME280;32448;44.960;-0.698;2023-03-31T13:32:19;101243.16;;;16.53;100.00
46718;BME280;32448;44.960;-0.698;2023-03-31T13:47:39;101259.88;;;16.58;100.00
46718;BME280;32448;44.960;-0.698;2023-03-31T13:58:49;101262.50;;;16.34;100.00
46718;BME280;32448;44.960;-0.698;2023-03-31T14:04:12;101266.00;;;16.28;100.00
46718;BME280;32448;44.960;-0.698;2023-03-31T14:06:52;101266.91;;;16.44;100.00
46718;BME280;32448;44.960;-0.698;2023-03-31T14:11:50;101266.91;;;16.43;100.00
46718;BME280;32448;44.960;-0.698;2023-03-31T14:14:18;101260.75;;;16.34;100.00
46718;BME280;32448;44.960;-0.698;2023-03-31T14:37:53;101262.47;;;16.17;100.00
46718;BME280;32448;44.960;-0.698;2023-03-31T14:40:25;101259.84;;;16.20;100.00
46718;BME280;32448;44.960;-0.698;2023-03-31T14:42:52;101271.28;;;16.21;100.00
46718;BME280;32448;44.960;-0.698;2023-03-31T14:45:23;101265.09;;;16.19;100.00
46718;BME280;32448;44.960;-0.698;2023-03-31T14:47:56;101252.78;;;16.13;100.00
46718;BME280;32448;44.960;-0.698;2023-03-31T14:50:33;101252.78;;;16.10;100.00
46718;BME280;32448;44.960;-0.698;2023-03-31T14:53:02;101255.44;;;16.12;100.00
46718;BME280;32448;44.960;-0.698;2023-03-31T14:55:31;101261.59;;;16.17;100.00
46718;BME280;32448;44.960;-0.698;2023-03-31T14:58:23;101244.88;;;16.13;100.00
46718;BME280;32448;44.960;-0.698;2023-03-31T15:00:52;101261.59;;;16.18;100.00
46718;BME280;32448;44.960;-0.698;2023-03-31T15:03:20;101261.63;;;16.30;100.00
46718;BME280;32448;44.960;-0.698;2023-03-31T15:05:49;101253.72;;;16.32;100.00
46718;BME280;32448;44.960;-0.698;2023-03-31T15:08:17;101275.69;;;16.32;100.00
46718;BME280;32448;44.960;-0.698;2023-03-31T15:10:54;101267.75;;;16.19;100.00
46718;BME280;32448;44.960;-0.698;2023-03-31T15:13:42;101274.78;;;16.18;100.00
46718;BME280;32448;44.960;-0.698;2023-03-31T15:16:33;101263.34;;;16.16;100.00
46718;BME280;32448;44.960;-0.698;2023-03-31T15:19:04;101258.06;;;16.24;100.00
46718;BME280;32448;44.960;-0.698;2023-03-31T15:21:35;101261.59;;;16.18;100.00
46718;BME280;32448;44.960;-0.698;2023-03-31T15:24:02;101264.22;;;16.15;100.00
46718;BME280;32448;44.960;-0.698;2023-03-31T15:26:34;101262.47;;;16.19;100.00
46718;BME280;32448;44.960;-0.698;2023-03-31T15:29:11;101273.00;;;16.10;100.00
46718;BME280;32448;44.960;-0.698;2023-03-31T15:31:42;101265.09;;;16.08;100.00
46718;BME280;32448;44.960;-0.698;2023-03-31T15:34:14;101265.06;;;16.02;100.00
46718;BME280;32448;44.960;-0.698;2023-03-31T15:36:45;101272.94;;;15.79;100.00
46718;BME280;32448;44.960;-0.698;2023-03-31T15:39:13;101268.47;;;15.64;100.00
46718;BME280;32448;44.960;-0.698;2023-03-31T15:41:40;101268.47;;;15.69;100.00
46718;BME280;32448;44.960;-0.698;2023-03-31T15:44:43;101265.84;;;15.64;100.00
46718;BME280;32448;44.960;-0.698;2023-03-31T15:47:20;101266.75;;;15.82;100.00
46718;BME280;32448;44.960;-0.698;2023-03-31T15:49:56;101261.50;;;15.79;100.00
46718;BME280;32448;44.960;-0.698;2023-03-31T15:52:28;101271.13;;;15.80;100.00
46718;BME280;32448;44.960;-0.698;2023-03-31T15:54:57;101263.22;;;15.80;100.00
46718;BME280;32448;44.960;-0.698;2023-03-31T15:57:30;101264.13;;;15.83;100.00
46718;BME280;32448;44.960;-0.698;2023-03-31T16:00:00;101268.56;;;15.87;100.00
46718;BME280;32448;44.960;-0.698;2023-03-31T16:02:41;101277.34;;;15.88;100.00
46718;BME280;32448;44.960;-0.698;2023-03-31T16:05:34;101274.72;;;15.88;100.00
46718;BME280;32448;44.960;-0.698;2023-03-31T16:08:13;101289.63;;;15.87;100.00
46718;BME280;32448;44.960;-0.698;2023-03-31T16:10:42;101287.84;;;15.79;100.00